Time;durP1;ratioP1;P1;durP2;ratioP2;P2;SDS_P1;SDS_P2;PMS_P1;PMS_P2;Temp;Humidity;BMP_temperature;BMP_pressure;BME280_temperature;BME280_humidity;BME280_pressure;Samples;Min_cycle;Max_cycle;Signal;HPM_P1;HPM_P2
2023/04/06 00:00:50;;;;;;;14.50;12.53;;;;;;;-143.84;78.75;45132.84;5069986;28;20433;-75
2023/04/06 00:03:17;;;;;;;19.10;14.10;;;;;;;-143.84;78.45;45106.19;5069731;28;20433;-75
2023/04/06 00:05:45;;;;;;;18.60;13.10;;;;;;;-143.84;78.14;45138.56;5069698;28;20436;-75
2023/04/06 00:08:13;;;;;;;14.80;11.97;;;;;;;-143.84;78.34;45134.75;5069519;28;21005;-75
2023/04/06 00:10:41;;;;;;;16.90;12.43;;;;;;;-143.84;78.40;45148.09;5069889;28;20456;-75
2023/04/06 00:13:08;;;;;;;17.10;11.63;;;;;;;-143.84;77.46;45169.03;5068983;28;20451;-74
2023/04/06 00:15:36;;;;;;;14.97;11.00;;;;;;;-143.84;76.83;45205.22;5068975;28;20436;-74
2023/04/06 00:18:04;;;;;;;14.90;11.90;;;;;;;-143.84;76.69;45184.25;5068920;28;20520;-74
2023/04/06 00:20:31;;;;;;;14.93;11.30;;;;;;;-143.84;76.17;45184.25;5068758;28;20439;-74
2023/04/06 00:22:58;;;;;;;15.60;11.53;;;;;;;-143.84;76.27;45176.66;5069188;28;20429;-74
2023/04/06 00:25:27;;;;;;;13.40;10.90;;;;;;;-143.84;75.29;45189.97;5068847;28;20452;-74
2023/04/06 00:27:54;;;;;;;11.70;10.50;;;;;;;-143.84;75.32;45218.53;5069024;28;20452;-74
2023/04/06 00:30:21;;;;;;;14.40;10.60;;;;;;;-143.84;75.89;45197.59;5069338;28;20491;-74
2023/04/06 00:32:49;;;;;;;14.37;10.80;;;;;;;-143.84;75.70;45176.66;5068814;28;20451;-74
2023/04/06 00:35:16;;;;;;;15.67;11.60;;;;;;;-143.84;76.24;45205.22;5068579;28;20541;-74
2023/04/06 00:37:43;;;;;;;18.70;12.20;;;;;;;-143.84;76.77;45159.50;5068096;28;20425;-74
2023/04/06 00:40:11;;;;;;;15.53;12.30;;;;;;;-143.84;76.62;45218.53;5068991;28;20819;-73
2023/04/06 00:42:40;;;;;;;16.03;11.60;;;;;;;-143.84;76.86;45178.56;5069305;28;20437;-73
2023/04/06 00:45:08;;;;;;;15.30;11.87;;;;;;;-143.84;76.59;45176.66;5072836;28;20526;-73
2023/04/06 00:47:35;;;;;;;14.20;11.17;;;;;;;-143.84;76.84;45180.47;5072758;28;20455;-74
2023/04/06 00:50:02;;;;;;;17.77;11.30;;;;;;;-143.84;77.03;45182.38;5072452;28;20476;-73
2023/04/06 00:52:30;;;;;;;14.63;11.53;;;;;;;-143.84;76.74;45199.50;5072498;28;20437;-73
2023/04/06 00:54:57;;;;;;;14.30;10.07;;;;;;;-143.84;76.35;45176.66;5072531;28;21009;-73
2023/04/06 00:57:24;;;;;;;15.33;10.60;;;;;;;-143.84;76.53;45163.31;5072285;28;21008;-73
2023/04/06 00:59:53;;;;;;;17.47;10.87;;;;;;;-143.84;75.71;45199.50;5072205;28;20453;-73
2023/04/06 01:02:20;;;;;;;14.10;10.63;;;;;;;-143.84;76.02;45207.13;5072340;28;20452;-73
2023/04/06 01:04:48;;;;;;;12.23;9.83;;;;;;;-143.84;75.61;45203.31;5072550;28;20502;-73
2023/04/06 01:07:15;;;;;;;13.03;9.60;;;;;;;-143.84;75.91;45193.78;5072519;28;20474;-73
2023/04/06 01:09:42;;;;;;;11.10;9.40;;;;;;;-143.84;75.89;45212.84;5071889;28;20861;-74
2023/04/06 01:12:10;;;;;;;11.27;8.83;;;;;;;-143.84;75.37;45205.22;5071064;28;21203;-73
2023/04/06 01:14:37;;;;;;;12.63;9.57;;;;;;;-143.84;74.59;45226.16;5071553;28;20437;-73
2023/04/06 01:17:06;;;;;;;10.37;8.23;;;;;;;-143.84;75.04;45226.16;5072210;28;20501;-74
2023/04/06 01:19:33;;;;;;;13.43;8.63;;;;;;;-143.84;74.31;45209.03;5072002;28;20961;-73
2023/04/06 01:22:00;;;;;;;9.30;8.37;;;;;;;-143.84;74.46;45195.69;5072153;28;20443;-73
2023/04/06 01:24:29;;;;;;;12.43;9.50;;;;;;;-143.84;74.68;45209.03;5072090;28;20444;-73
2023/04/06 01:26:57;;;;;;;11.67;9.00;;;;;;;-143.84;74.26;45201.41;5071867;28;20443;-73
2023/04/06 01:29:24;;;;;;;11.03;8.80;;;;;;;-143.84;74.35;45229.97;5070850;28;20993;-73
2023/04/06 01:31:51;;;;;;;10.33;8.53;;;;;;;-143.84;74.12;45235.69;5071110;28;20484;-73
2023/04/06 01:34:19;;;;;;;10.43;9.10;;;;;;;-143.84;74.27;45209.03;5071334;28;20946;-74
2023/04/06 01:36:46;;;;;;;10.40;8.40;;;;;;;-143.84;74.35;45222.34;5071024;28;20505;-74
2023/04/06 01:39:13;;;;;;;8.90;8.00;;;;;;;-143.84;74.44;45235.69;5070874;28;20444;-73
2023/04/06 01:41:42;;;;;;;10.80;8.83;;;;;;;-143.84;74.26;45210.94;5071371;28;21259;-73
2023/04/06 01:44:09;;;;;;;11.50;9.23;;;;;;;-143.84;74.25;45228.06;5070925;28;20974;-73
2023/04/06 01:46:36;;;;;;;10.03;8.20;;;;;;;-143.84;73.86;45210.94;5070996;28;20780;-73
2023/04/06 01:49:03;;;;;;;8.37;7.57;;;;;;;-143.84;73.83;45249.00;5071821;28;20516;-73
2023/04/06 01:51:30;;;;;;;9.33;8.43;;;;;;;-143.84;73.52;45228.06;5071521;28;20943;-73
2023/04/06 01:53:57;;;;;;;9.90;7.67;;;;;;;-143.84;73.56;45218.53;5071795;28;20440;-74
2023/04/06 01:56:26;;;;;;;8.90;7.53;;;;;;;-143.84;73.20;45212.84;5072088;28;20432;-74
2023/04/06 01:58:55;;;;;;;8.97;8.07;;;;;;;-143.84;73.16;45220.44;5072215;28;20483;-74
2023/04/06 02:01:22;;;;;;;10.13;8.80;;;;;;;-143.84;73.13;45214.72;5072444;28;20436;-74
2023/04/06 02:03:50;;;;;;;8.67;7.67;;;;;;;-143.84;73.78;45218.53;5072521;28;20439;-73
2023/04/06 02:06:19;;;;;;;9.53;7.97;;;;;;;-143.84;73.91;45229.97;5072392;28;20433;-70
2023/04/06 02:08:46;;;;;;;10.30;8.63;;;;;;;-143.84;73.53;45218.53;5074019;28;20486;-70
2023/04/06 02:11:13;;;;;;;9.50;8.47;;;;;;;-143.84;74.21;45222.34;5074185;28;20480;-70
2023/04/06 02:13:41;;;;;;;9.93;8.50;;;;;;;-143.84;74.20;45214.72;5074164;28;20830;-70
2023/04/06 02:16:09;;;;;;;9.97;8.90;;;;;;;-143.84;74.34;45207.13;5073865;28;20822;-70
2023/04/06 02:18:37;;;;;;;13.97;9.27;;;;;;;-143.84;74.46;45229.97;5074016;28;20455;-70
2023/04/06 02:21:04;;;;;;;9.27;7.50;;;;;;;-143.84;74.10;45207.13;5073575;28;20425;-70
2023/04/06 02:23:31;;;;;;;9.70;8.53;;;;;;;-143.84;73.92;45205.22;5073655;28;20444;-70
2023/04/06 02:25:58;;;;;;;10.07;8.43;;;;;;;-143.84;73.90;45216.63;5073767;28;20449;-70
2023/04/06 02:28:25;;;;;;;8.80;7.90;;;;;;;-143.84;73.82;45210.94;5073824;28;21108;-70
2023/04/06 02:30:53;;;;;;;10.70;8.70;;;;;;;-143.84;73.63;45233.78;5073959;28;20437;-70
2023/04/06 02:33:21;;;;;;;9.53;8.30;;;;;;;-143.84;73.82;45224.25;5074171;28;20406;-70
2023/04/06 02:35:48;;;;;;;9.80;8.30;;;;;;;-143.84;73.93;45214.72;5073702;28;20451;-70
2023/04/06 02:38:15;;;;;;;8.97;8.07;;;;;;;-143.84;73.66;45260.44;5073755;28;20448;-70
2023/04/06 02:40:42;;;;;;;10.23;8.60;;;;;;;-143.84;73.74;45241.41;5073469;28;20440;-70
2023/04/06 02:43:10;;;;;;;12.83;9.37;;;;;;;-143.84;73.72;45226.16;5073682;28;20429;-70
2023/04/06 02:45:37;;;;;;;8.73;7.70;;;;;;;-143.84;74.02;45235.69;5073001;28;20494;-70
2023/04/06 02:48:05;;;;;;;10.43;8.83;;;;;;;-143.84;74.21;45222.34;5072900;28;20448;-70
2023/04/06 02:50:33;;;;;;;10.00;8.67;;;;;;;-143.84;74.24;45228.06;5072924;28;20487;-70
2023/04/06 02:53:00;;;;;;;12.23;9.30;;;;;;;-143.84;74.67;45197.59;5071776;28;20445;-70
2023/04/06 02:55:27;;;;;;;10.60;8.27;;;;;;;-143.84;74.08;45210.94;5071734;28;20437;-70
2023/04/06 02:57:55;;;;;;;12.50;9.57;;;;;;;-143.84;74.51;45180.47;5072131;28;20502;-70
2023/04/06 03:00:22;;;;;;;12.13;9.10;;;;;;;-143.84;74.61;45216.63;5072872;28;20436;-70
2023/04/06 03:02:49;;;;;;;10.63;9.53;;;;;;;-143.84;74.67;45201.41;5071972;28;20806;-70
2023/04/06 03:05:16;;;;;;;11.90;9.50;;;;;;;-143.84;74.11;45209.03;5071689;28;20559;-71
2023/04/06 03:07:46;;;;;;;11.73;9.87;;;;;;;-143.84;74.33;45214.72;5072161;28;20439;-70
2023/04/06 03:10:13;;;;;;;11.67;9.60;;;;;;;-143.84;74.64;45207.13;5071167;28;20497;-71
2023/04/06 03:12:41;;;;;;;10.33;8.80;;;;;;;-143.84;75.16;45229.97;5072586;28;20496;-71
2023/04/06 03:15:10;;;;;;;11.70;9.60;;;;;;;-143.84;74.90;45216.63;5072058;28;20514;-71
2023/04/06 03:17:37;;;;;;;10.60;9.50;;;;;;;-143.84;74.81;45233.78;5072271;28;20434;-71
2023/04/06 03:20:05;;;;;;;16.13;9.50;;;;;;;-143.84;75.01;45203.31;5070471;28;20956;-70
2023/04/06 03:22:32;;;;;;;12.80;10.00;;;;;;;-143.84;75.42;45203.31;5069997;28;20441;-71
2023/04/06 03:25:01;;;;;;;11.03;8.97;;;;;;;-143.84;75.61;45209.03;5069349;28;20460;-72
2023/04/06 03:27:28;;;;;;;12.80;10.67;;;;;;;-143.84;79.48;45144.28;5070503;28;20437;-71
2023/04/06 03:29:55;;;;;;;13.20;10.43;;;;;;;-143.84;77.83;45212.84;5071922;28;20481;-69
2023/04/06 03:32:22;;;;;;;11.27;9.60;;;;;;;-143.84;76.12;45189.97;5071748;28;20444;-74
2023/04/06 03:34:50;;;;;;;10.73;9.40;;;;;;;-143.84;76.32;45245.19;5071294;28;20471;-69
2023/04/06 03:37:17;;;;;;;13.90;10.73;;;;;;;-143.84;75.98;45224.25;5072242;28;20495;-70
2023/04/06 03:39:44;;;;;;;12.10;10.30;;;;;;;-143.84;75.82;45214.72;5072720;28;20444;-70
2023/04/06 03:42:13;;;;;;;11.47;9.90;;;;;;;-143.84;75.41;45199.50;5072498;28;21130;-70
2023/04/06 03:44:40;;;;;;;11.60;8.70;;;;;;;-143.84;75.67;45207.13;5072452;28;20433;-70
2023/04/06 03:47:07;;;;;;;11.97;9.83;;;;;;;-143.84;75.75;45186.16;5071983;28;20441;-71
2023/04/06 03:49:34;;;;;;;12.53;10.70;;;;;;;-143.84;75.92;45174.75;5070759;28;20900;-70
2023/04/06 03:52:02;;;;;;;12.30;9.90;;;;;;;-143.84;75.65;45231.88;5070976;28;20468;-70
2023/04/06 03:54:29;;;;;;;13.90;9.23;;;;;;;-143.84;75.98;45188.06;5070458;28;20837;-70
2023/04/06 03:56:56;;;;;;;12.43;9.93;;;;;;;-143.84;76.04;45205.22;5070371;28;20483;-70
2023/04/06 03:59:25;;;;;;;13.17;9.83;;;;;;;-143.84;76.04;45197.59;5070008;28;20954;-75
2023/04/06 04:01:54;;;;;;;11.77;10.50;;;;;;;-143.84;75.89;45214.72;5069741;28;20930;-71
2023/04/06 04:04:21;;;;;;;14.90;10.53;;;;;;;-143.84;76.16;45205.22;5069439;28;20951;-73
2023/04/06 04:06:48;;;;;;;13.73;9.60;;;;;;;-143.84;75.83;45203.31;5066773;28;20982;-72
2023/04/06 04:09:15;;;;;;;13.27;9.60;;;;;;;-143.84;76.18;45210.94;5069386;28;20997;-72
2023/04/06 04:11:42;;;;;;;11.40;10.20;;;;;;;-143.84;76.50;45214.72;5069188;28;20484;-72
2023/04/06 04:14:09;;;;;;;16.87;9.93;;;;;;;-143.84;76.54;45199.50;5069251;28;20445;-72
2023/04/06 04:16:39;;;;;;;12.73;10.50;;;;;;;-143.84;76.29;45207.13;5069252;28;20432;-72
2023/04/06 04:19:06;;;;;;;10.90;9.80;;;;;;;-143.84;76.25;45184.25;5069218;28;20448;-72
2023/04/06 04:21:33;;;;;;;15.30;11.23;;;;;;;-143.84;76.33;45189.97;5069235;28;20425;-72
2023/04/06 04:24:00;;;;;;;17.93;11.80;;;;;;;-143.84;76.00;45209.03;5069079;28;20449;-72
2023/04/06 04:26:27;;;;;;;20.73;13.37;;;;;;;-143.84;75.98;45226.16;5068641;28;20436;-72
2023/04/06 04:28:55;;;;;;;18.07;11.90;;;;;;;-143.84;76.44;45184.25;5068219;28;20425;-72
2023/04/06 04:31:22;;;;;;;19.27;11.97;;;;;;;-143.84;76.28;45186.16;5069138;28;20444;-72
2023/04/06 04:33:51;;;;;;;11.00;9.97;;;;;;;-143.84;76.52;45180.47;5068977;28;20448;-72
2023/04/06 04:36:18;;;;;;;12.03;10.13;;;;;;;-143.84;76.65;45209.03;5069112;28;20480;-72
2023/04/06 04:38:45;;;;;;;12.63;11.17;;;;;;;-143.84;76.88;45205.22;5069297;28;20440;-72
2023/04/06 04:41:12;;;;;;;11.73;10.40;;;;;;;-143.84;76.72;45224.25;5068965;28;20883;-73
2023/04/06 04:43:39;;;;;;;13.27;10.40;;;;;;;-143.84;76.09;45241.41;5068873;28;20914;-72
2023/04/06 04:46:06;;;;;;;18.20;10.67;;;;;;;-143.84;75.96;45201.41;5069050;28;20441;-72
2023/04/06 04:48:34;;;;;;;12.80;11.50;;;;;;;-143.84;76.10;45191.88;5068905;28;20448;-72
2023/04/06 04:51:02;;;;;;;14.10;12.30;;;;;;;-143.84;76.08;45184.25;5069267;28;20475;-72
2023/04/06 04:53:30;;;;;;;13.50;11.70;;;;;;;-143.84;75.84;45189.97;5069077;28;20453;-72
2023/04/06 04:55:57;;;;;;;15.57;11.83;;;;;;;-143.84;75.83;45210.94;5068752;28;20449;-72
2023/04/06 04:58:24;;;;;;;22.27;12.57;;;;;;;-143.84;75.85;45197.59;5068954;28;20617;-72
2023/04/06 05:00:51;;;;;;;15.27;12.00;;;;;;;-143.84;75.92;45207.13;5069332;28;20951;-72
2023/04/06 05:03:23;;;;;;;18.03;11.57;;;;;;;-143.84;76.00;45229.97;5069165;28;20444;-72
2023/04/06 05:05:50;;;;;;;20.30;12.57;;;;;;;-143.84;75.48;45203.31;5069218;28;20438;-72
2023/04/06 05:08:18;;;;;;;17.27;13.00;;;;;;;-143.84;74.99;45184.25;5068899;28;20435;-72
2023/04/06 05:10:46;;;;;;;19.10;13.40;;;;;;;-143.84;74.91;45222.34;5068270;28;20515;-72
2023/04/06 05:13:13;;;;;;;18.33;12.27;;;;;;;-143.84;74.57;45197.59;5068047;28;20433;-73
2023/04/06 05:15:40;;;;;;;18.10;13.43;;;;;;;-143.84;74.16;45216.63;5068162;28;20460;-75
2023/04/06 05:18:09;;;;;;;16.77;13.07;;;;;;;-143.84;73.67;45193.78;5068547;28;20441;-75
2023/04/06 05:20:37;;;;;;;18.93;11.63;;;;;;;-143.84;73.49;45218.53;5066252;28;20429;-75
2023/04/06 05:23:04;;;;;;;22.53;12.67;;;;;;;-143.84;73.35;45231.88;5050987;28;20442;-75
2023/04/06 05:25:33;;;;;;;15.40;12.77;;;;;;;-143.84;73.10;45207.13;5053809;28;20449;-75
2023/04/06 05:28:01;;;;;;;13.80;10.90;;;;;;;-143.84;73.02;45229.97;5069225;28;21055;-75
2023/04/06 05:30:28;;;;;;;13.20;11.90;;;;;;;-143.84;72.96;45201.41;5069512;28;20479;-75
2023/04/06 05:32:55;;;;;;;14.57;12.07;;;;;;;-143.84;73.16;45214.72;5071534;28;20452;-73
2023/04/06 05:35:23;;;;;;;13.40;11.37;;;;;;;-143.84;72.84;45222.34;5071159;28;20456;-72
2023/04/06 05:37:50;;;;;;;16.40;10.33;;;;;;;-143.84;72.56;45224.25;5072042;28;20817;-72
2023/04/06 05:40:17;;;;;;;15.87;12.67;;;;;;;-143.84;72.13;45214.72;5071899;28;20440;-72
2023/04/06 05:42:46;;;;;;;14.60;11.13;;;;;;;-143.84;71.86;45201.41;5072302;28;20433;-72
2023/04/06 05:45:16;;;;;;;22.53;12.60;;;;;;;-143.84;72.08;45235.69;5071312;28;20475;-72
2023/04/06 05:47:44;;;;;;;15.57;11.47;;;;;;;-143.84;72.40;45210.94;5072198;28;20487;-73
2023/04/06 05:50:12;;;;;;;14.27;11.73;;;;;;;-143.84;72.67;45210.94;5072040;28;20489;-72
2023/04/06 05:52:42;;;;;;;16.13;11.77;;;;;;;-143.84;72.56;45235.69;5064943;28;20452;-72
2023/04/06 05:55:10;;;;;;;19.93;12.10;;;;;;;-143.84;72.39;45233.78;5053129;28;20476;-72
2023/04/06 05:57:37;;;;;;;19.80;13.47;;;;;;;-143.84;72.07;45201.41;5050265;28;20446;-73
2023/04/06 06:00:09;;;;;;;12.00;10.70;;;;;;;-143.84;71.72;45229.97;5050361;28;20457;-73
2023/04/06 06:02:36;;;;;;;16.97;11.73;;;;;;;-143.84;71.75;45218.53;5051404;28;20486;-72
2023/04/06 06:05:04;;;;;;;13.13;11.23;;;;;;;-143.84;70.91;45209.03;5050849;28;20442;-72
2023/04/06 06:07:31;;;;;;;17.33;11.80;;;;;;;-143.84;71.30;45214.72;5051097;28;20438;-73
2023/04/06 06:09:59;;;;;;;16.47;11.70;;;;;;;-143.84;70.82;45220.44;5051574;28;20481;-73
2023/04/06 06:12:26;;;;;;;17.40;11.73;;;;;;;-143.84;70.57;45209.03;5051304;28;20560;-72
2023/04/06 06:14:53;;;;;;;11.80;9.73;;;;;;;-143.84;69.94;45241.41;5051264;28;20449;-72
2023/04/06 06:17:22;;;;;;;16.77;10.70;;;;;;;-143.84;70.14;45218.53;5051482;28;20437;-73
2023/04/06 06:19:49;;;;;;;17.37;12.70;;;;;;;-143.84;69.78;45228.06;5051433;28;20790;-73
2023/04/06 06:22:16;;;;;;;16.70;11.00;;;;;;;-143.84;68.52;45226.16;5062171;28;21047;-73
2023/04/06 06:24:44;;;;;;;14.77;11.93;;;;;;;-143.84;68.44;45226.16;5071120;28;20440;-73
2023/04/06 06:27:11;;;;;;;11.80;9.70;;;;;;;-143.84;68.77;45207.13;5071000;28;20452;-72
2023/04/06 06:29:38;;;;;;;13.53;10.97;;;;;;;-143.84;68.32;45210.94;5070595;28;20444;-72
2023/04/06 06:32:06;;;;;;;13.00;10.00;;;;;;;-143.84;68.72;45210.94;5070940;28;20436;-72
2023/04/06 06:34:34;;;;;;;15.77;11.77;;;;;;;-143.84;69.34;45226.16;5070580;28;20433;-71
2023/04/06 06:37:01;;;;;;;12.00;10.40;;;;;;;-143.84;68.64;45195.69;5070478;28;20985;-73
2023/04/06 06:39:29;;;;;;;15.63;10.90;;;;;;;-143.84;67.90;45256.63;5069708;28;20806;-72
2023/04/06 06:41:56;;;;;;;16.00;11.77;;;;;;;-143.84;68.46;45207.13;5068490;28;20429;-73
2023/04/06 06:44:23;;;;;;;15.90;12.70;;;;;;;-143.84;68.79;45205.22;5069724;28;21243;-73
2023/04/06 06:46:50;;;;;;;18.83;13.50;;;;;;;-143.84;69.90;45207.13;5069927;28;20441;-73
2023/04/06 06:49:18;;;;;;;24.10;14.90;;;;;;;-143.84;69.64;45231.88;5070176;28;20441;-73
2023/04/06 06:51:47;;;;;;;15.13;12.27;;;;;;;-143.84;68.52;45237.59;5068737;28;20487;-73
2023/04/06 06:54:14;;;;;;;19.27;10.50;;;;;;;-143.84;67.90;45191.88;5067368;28;20445;-73
2023/04/06 06:56:41;;;;;;;17.90;10.43;;;;;;;-143.84;68.05;45231.88;5067613;28;20440;-73
2023/04/06 06:59:08;;;;;;;16.20;12.30;;;;;;;-143.84;67.43;45233.78;5068401;28;20452;-73
2023/04/06 07:01:38;;;;;;;12.00;9.90;;;;;;;-143.84;66.72;45174.75;5067649;28;20448;-73
2023/04/06 07:04:05;;;;;;;18.90;11.30;;;;;;;-143.84;66.10;45214.72;5068013;28;20441;-73
2023/04/06 07:06:32;;;;;;;20.63;12.20;;;;;;;-143.84;64.71;45209.03;5069011;28;20487;-73
2023/04/06 07:09:02;;;;;;;19.93;9.93;;;;;;;-143.84;66.58;45207.13;5069918;28;20440;-73
2023/04/06 07:11:30;;;;;;;21.67;13.00;;;;;;;-143.84;65.88;45209.03;5069874;28;21219;-73
2023/04/06 07:13:57;;;;;;;12.83;10.87;;;;;;;-143.84;62.54;45209.03;5069900;28;21188;-73
2023/04/06 07:16:24;;;;;;;13.17;10.10;;;;;;;-143.84;61.89;45224.25;5070001;28;20433;-73
2023/04/06 07:18:51;;;;;;;16.63;12.83;;;;;;;-143.84;61.99;45197.59;5069740;28;20442;-69
2023/04/06 07:21:19;;;;;;;15.97;11.10;;;;;;;-143.84;61.25;45195.69;5069875;28;20445;-73
2023/04/06 07:23:47;;;;;;;11.93;10.73;;;;;;;-143.84;58.31;45199.50;5069451;28;20452;-73
2023/04/06 07:26:16;;;;;;;13.67;12.00;;;;;;;-143.84;57.18;45178.56;5069822;28;20435;-72
2023/04/06 07:28:43;;;;;;;20.70;11.87;;;;;;;-143.84;57.62;45209.03;5069374;28;20460;-73
2023/04/06 07:31:10;;;;;;;20.90;12.63;;;;;;;-143.84;57.42;45193.78;5069708;28;20487;-73
2023/04/06 07:33:38;;;;;;;19.70;12.37;;;;;;;-143.84;57.65;45207.13;5070504;28;20437;-76
2023/04/06 07:36:06;;;;;;;15.93;12.00;;;;;;;-143.84;57.22;45172.84;5071026;28;20452;-76
2023/04/06 07:38:33;;;;;;;16.23;12.00;;;;;;;-143.84;57.48;45193.78;5069889;28;20447;-77
2023/04/06 07:41:02;;;;;;;11.67;9.97;;;;;;;-143.84;56.65;45189.97;5069702;28;20791;-77
2023/04/06 07:43:31;;;;;;;17.33;10.97;;;;;;;-143.84;54.54;45193.78;5069576;28;20436;-78
2023/04/06 07:45:59;;;;;;;14.53;11.97;;;;;;;-143.84;54.25;45205.22;5070245;28;21055;-77
2023/04/06 07:48:27;;;;;;;17.47;12.30;;;;;;;-143.84;54.01;45193.78;5069752;28;20463;-76
2023/04/06 07:51:02;;;;;;;10.03;9.03;;;;;;;-143.84;52.92;45165.22;5069478;28;20468;-76
2023/04/06 07:53:29;;;;;;;8.60;6.73;;;;;;;-143.84;49.82;45174.75;5069743;28;20432;-76
2023/04/06 07:55:56;;;;;;;8.00;7.23;;;;;;;-143.84;49.34;45148.09;5069892;28;20510;-76
2023/04/06 07:58:23;;;;;;;8.03;7.20;;;;;;;-143.84;49.37;45210.94;5069311;28;20529;-76
2023/04/06 08:00:52;;;;;;;12.77;9.13;;;;;;;-143.84;49.53;45163.31;5068965;28;20430;-76
2023/04/06 08:03:25;;;;;;;9.00;7.90;;;;;;;-143.84;47.03;45144.28;5068672;28;20442;-77
2023/04/06 08:05:52;;;;;;;14.93;7.90;;;;;;;-143.84;47.51;45174.75;5069753;28;20451;-77
2023/04/06 08:08:21;;;;;;;10.10;8.67;;;;;;;-143.84;48.25;45170.94;5070085;28;21017;-77
2023/04/06 08:10:48;;;;;;;14.10;10.30;;;;;;;-143.84;47.96;45167.13;5069794;28;20539;-78
2023/04/06 08:13:15;;;;;;;14.30;10.50;;;;;;;-143.84;47.29;45159.50;5070354;28;20444;-77
2023/04/06 08:15:42;;;;;;;12.68;10.70;;;;;;;-143.84;46.46;45161.41;5068210;28;20433;-76
2023/04/06 08:18:11;;;;;;;11.70;10.60;;;;;;;-143.84;46.24;45146.19;5068158;28;20210;-77
2023/04/06 08:20:38;;;;;;;12.97;10.00;;;;;;;-143.84;44.84;45150.00;5069095;28;20447;-77
2023/04/06 08:23:06;;;;;;;13.30;11.00;;;;;;;-143.84;44.22;45174.75;5068402;28;20452;-76
2023/04/06 08:25:35;;;;;;;19.03;10.80;;;;;;;-143.84;44.61;45157.59;5068938;28;20946;-76
2023/04/06 08:28:02;;;;;;;10.30;9.37;;;;;;;-143.84;45.31;45167.13;5069529;28;20935;-77
2023/04/06 08:30:30;;;;;;;10.67;9.63;;;;;;;-143.84;44.17;45159.50;5069630;28;20455;-76
2023/04/06 08:32:57;;;;;;;11.30;9.30;;;;;;;-143.84;44.45;45142.38;5069764;28;20444;-76
2023/04/06 08:35:27;;;;;;;11.80;9.07;;;;;;;-143.84;44.61;45174.75;5069399;28;20459;-76
2023/04/06 08:37:54;;;;;;;15.23;8.87;;;;;;;-143.84;44.88;45136.66;5068895;28;20446;-76
2023/04/06 08:40:21;;;;;;;12.43;8.60;;;;;;;-143.84;44.51;45153.81;5069526;28;20451;-76
2023/04/06 08:42:53;;;;;;;12.00;9.00;;;;;;;-143.84;44.20;45163.31;5069493;28;20481;-77
2023/04/06 08:45:21;;;;;;;18.40;9.33;;;;;;;-143.84;45.01;45155.69;5069872;28;20451;-77
2023/04/06 08:47:49;;;;;;;10.30;8.03;;;;;;;-143.84;44.36;45170.94;5069734;28;20591;-77
2023/04/06 08:50:18;;;;;;;9.07;7.00;;;;;;;-143.84;44.72;45140.47;5069447;28;20550;-77
2023/04/06 08:52:48;;;;;;;9.47;8.43;;;;;;;-143.84;44.76;45150.00;5068745;28;20446;-76
2023/04/06 08:55:16;;;;;;;13.90;8.73;;;;;;;-143.84;45.15;45148.09;5068380;28;20456;-76
2023/04/06 08:57:43;;;;;;;10.50;8.70;;;;;;;-143.84;44.45;45180.47;5069162;28;20445;-77
2023/04/06 09:00:12;;;;;;;9.23;8.23;;;;;;;-143.84;44.17;45212.84;5069176;28;20520;-77
2023/04/06 09:02:42;;;;;;;8.03;7.23;;;;;;;-143.84;43.81;45144.28;5069359;28;20425;-77
2023/04/06 09:05:10;;;;;;;8.77;7.43;;;;;;;-143.84;45.13;45161.41;5071505;28;20436;-77
2023/04/06 09:07:38;;;;;;;12.73;8.67;;;;;;;-143.84;45.12;45151.91;5073153;28;21051;-77
2023/04/06 09:10:08;;;;;;;9.17;8.30;;;;;;;-143.84;45.14;45170.94;5073154;28;20452;-77
2023/04/06 09:12:36;;;;;;;9.83;8.83;;;;;;;-143.84;44.55;45170.94;5072676;28;20500;-77
2023/04/06 09:15:04;;;;;;;10.30;8.37;;;;;;;-143.84;44.96;45161.41;5073163;28;21227;-77
2023/04/06 09:17:33;;;;;;;11.77;9.00;;;;;;;-143.84;44.13;45188.06;5072987;28;20442;-77
2023/04/06 09:20:02;;;;;;;8.10;7.30;;;;;;;-143.84;44.67;45172.84;5073056;28;20435;-77
2023/04/06 09:22:37;;;;;;;8.30;7.50;;;;;;;-143.84;45.26;45138.56;5073272;28;20442;-78
2023/04/06 09:25:07;;;;;;;10.90;8.20;;;;;;;-143.84;45.09;45144.28;5073994;28;20546;-78
2023/04/06 09:27:36;;;;;;;11.43;8.40;;;;;;;-143.84;45.92;45172.84;5074088;28;20531;-78
2023/04/06 09:30:08;;;;;;;9.57;8.60;;;;;;;-143.84;45.79;45186.16;5073352;28;20456;-78
2023/04/06 09:32:47;;;;;;;8.30;7.50;;;;;;;-143.84;45.61;45189.97;5073496;28;20485;-77
2023/04/06 09:35:15;;;;;;;12.47;10.00;;;;;;;-143.84;46.22;45159.50;5073545;28;20436;-77
2023/04/06 09:37:42;;;;;;;10.70;7.70;;;;;;;-143.84;46.57;45170.94;5073708;28;20932;-77
2023/04/06 09:40:13;;;;;;;9.33;7.50;;;;;;;-143.84;46.90;45151.91;5073261;28;20439;-77
2023/04/06 09:42:42;;;;;;;11.93;8.50;;;;;;;-143.84;46.66;45189.97;5073294;28;20511;-77
2023/04/06 09:45:10;;;;;;;9.07;8.17;;;;;;;-143.84;47.09;45163.31;5072237;28;20560;-77
2023/04/06 09:47:40;;;;;;;9.03;8.13;;;;;;;-143.84;47.71;45161.41;5070512;28;20537;-77
2023/04/06 09:50:10;;;;;;;11.13;8.10;;;;;;;-143.84;47.61;45184.25;5071869;28;20438;-77
2023/04/06 09:52:41;;;;;;;10.13;8.53;;;;;;;-143.84;47.88;45186.16;5071846;28;20488;-77
2023/04/06 09:55:10;;;;;;;11.47;7.93;;;;;;;-143.84;48.31;45191.88;5072907;28;20445;-77
2023/04/06 09:57:51;;;;;;;12.60;8.70;;;;;;;-143.84;47.84;45140.47;5072747;28;20442;-77
2023/04/06 10:00:23;;;;;;;8.73;7.90;;;;;;;-143.84;48.07;45178.56;5072298;28;20438;-77
2023/04/06 10:02:56;;;;;;;9.20;7.90;;;;;;;-143.84;48.39;45155.69;5072547;28;20456;-77
2023/04/06 10:05:34;;;;;;;12.37;8.23;;;;;;;-143.84;46.72;45172.84;5072213;28;20445;-77
2023/04/06 10:08:07;;;;;;;12.20;9.07;;;;;;;-143.84;47.77;45172.84;5072363;28;20438;-78
2023/04/06 10:10:35;;;;;;;9.77;8.77;;;;;;;-143.84;46.92;45189.97;5072657;28;21022;-77
2023/04/06 10:13:04;;;;;;;13.17;7.93;;;;;;;-143.84;47.19;45161.41;5072125;28;20504;-76
2023/04/06 10:15:32;;;;;;;15.13;8.67;;;;;;;-143.84;47.17;45157.59;5071997;28;20451;-77
2023/04/06 10:18:01;;;;;;;10.70;9.07;;;;;;;-143.84;47.96;45195.69;5072153;28;20824;-77
2023/04/06 10:20:34;;;;;;;11.07;9.30;;;;;;;-143.84;48.48;45178.56;5070743;28;20445;-77
2023/04/06 10:23:07;;;;;;;9.57;8.57;;;;;;;-143.84;48.06;45157.59;5069645;28;20447;-78
2023/04/06 10:25:35;;;;;;;11.63;9.50;;;;;;;-143.84;48.03;45178.56;5070612;28;20440;-76
2023/04/06 10:28:06;;;;;;;10.27;9.27;;;;;;;-143.84;48.71;45144.28;5070832;28;20822;-76
2023/04/06 10:30:34;;;;;;;13.60;9.30;;;;;;;-143.84;49.08;45174.75;5070860;28;20441;-76
2023/04/06 10:33:14;;;;;;;12.30;9.03;;;;;;;-143.84;48.40;45176.66;5070957;28;20487;-76
2023/04/06 10:35:41;;;;;;;12.00;8.60;;;;;;;-143.84;47.13;45150.00;5071700;28;20561;-76
2023/04/06 10:38:09;;;;;;;9.70;8.70;;;;;;;-143.84;47.25;45150.00;5071229;28;20797;-76
2023/04/06 10:40:38;;;;;;;14.60;9.20;;;;;;;-143.84;47.57;45155.69;5071362;28;20488;-77
2023/04/06 10:43:11;;;;;;;9.00;8.07;;;;;;;-143.84;47.48;45159.50;5070639;28;20443;-69
2023/04/06 10:45:38;;;;;;;12.03;9.33;;;;;;;-143.84;46.86;45224.25;5069865;28;20461;-69
2023/04/06 10:48:16;;;;;;;10.40;9.30;;;;;;;-143.84;47.24;45157.59;5069885;28;20449;-68
2023/04/06 10:50:46;;;;;;;9.90;8.90;;;;;;;-143.84;48.04;45153.81;5070155;28;20441;-68
2023/04/06 10:53:21;;;;;;;11.60;10.27;;;;;;;-143.84;47.80;45174.75;5069186;28;20578;-68
2023/04/06 10:55:50;;;;;;;12.10;9.60;;;;;;;-143.84;47.69;45167.13;5069423;28;20517;-69
2023/04/06 10:58:19;;;;;;;12.50;9.67;;;;;;;-143.84;47.80;45169.03;5069771;28;21314;-69
2023/04/06 11:00:46;;;;;;;11.33;9.90;;;;;;;-143.84;47.38;45151.91;5069952;28;20448;-69
2023/04/06 11:03:14;;;;;;;9.83;8.83;;;;;;;-143.84;46.96;45132.84;5069463;28;20435;-69
2023/04/06 11:05:45;;;;;;;9.00;8.10;;;;;;;-143.84;46.21;45151.91;5069717;28;20450;-69
2023/04/06 11:08:23;;;;;;;8.40;7.50;;;;;;;-143.84;46.03;45172.84;5069266;28;21352;-69
2023/04/06 11:10:50;;;;;;;10.03;8.80;;;;;;;-143.84;46.98;45167.13;5060257;28;20480;-69